createdAt,value
2023-02-14T00:00:57.277Z,14.00
2023-02-14T00:03:24.075Z,8.80
2023-02-14T00:05:50.778Z,10.80
2023-02-14T00:08:17.175Z,10.40
2023-02-14T00:10:43.616Z,10.10
2023-02-14T00:13:10.076Z,10.10
2023-02-14T00:15:36.572Z,11.10
2023-02-14T00:18:03.504Z,11.00
2023-02-14T00:20:30.154Z,13.60
2023-02-14T00:22:56.654Z,13.30
2023-02-14T00:25:23.245Z,13.50
2023-02-14T00:27:49.874Z,11.50
2023-02-14T00:30:16.504Z,13.30
2023-02-14T00:32:43.415Z,13.90
2023-02-14T00:35:10.714Z,14.00
2023-02-14T00:37:37.806Z,11.50
2023-02-14T00:40:07.077Z,11.70
2023-02-14T00:42:33.830Z,13.90
2023-02-14T00:45:00.645Z,12.80
2023-02-14T00:47:27.136Z,11.30
2023-02-14T00:49:53.695Z,10.40
2023-02-14T00:52:20.223Z,11.20
2023-02-14T00:54:46.677Z,10.80
2023-02-14T00:57:13.215Z,9.20
2023-02-14T00:59:39.683Z,11.60
2023-02-14T01:02:06.335Z,12.30
2023-02-14T01:04:32.893Z,11.00
2023-02-14T01:06:59.271Z,10.90
2023-02-14T01:09:25.769Z,10.30
2023-02-14T01:11:52.300Z,10.30
2023-02-14T01:14:18.740Z,12.50
2023-02-14T01:16:45.340Z,8.80
2023-02-14T01:19:11.831Z,11.70
2023-02-14T01:21:38.411Z,9.40
2023-02-14T01:24:08.085Z,10.90
2023-02-14T01:26:36.016Z,10.80
2023-02-14T01:29:04.889Z,8.00
2023-02-14T01:31:34.819Z,10.40
2023-02-14T01:34:01.894Z,10.80
2023-02-14T01:36:36.717Z,10.10
2023-02-14T01:39:12.667Z,9.80
2023-02-14T01:41:42.410Z,9.50
2023-02-14T01:44:29.125Z,9.00
2023-02-14T01:46:56.609Z,9.40
2023-02-14T01:49:31.859Z,11.70
2023-02-14T01:52:14.098Z,10.50
2023-02-14T01:54:49.087Z,10.20
2023-02-14T01:57:19.418Z,10.40
2023-02-14T01:59:55.853Z,8.80
2023-02-14T02:02:24.041Z,12.10
2023-02-14T02:04:55.866Z,12.20
2023-02-14T02:07:26.512Z,10.80
2023-02-14T02:10:01.088Z,11.30
2023-02-14T02:12:30.472Z,10.30
2023-02-14T02:14:59.865Z,10.00
2023-02-14T02:17:42.179Z,10.10
2023-02-14T02:20:39.429Z,11.20
2023-02-14T02:23:57.345Z,9.00
2023-02-14T02:26:58.479Z,9.20
2023-02-14T02:30:04.014Z,8.50
2023-02-14T02:33:07.332Z,11.80
2023-02-14T02:36:01.885Z,10.40
2023-02-14T02:38:48.469Z,11.50
2023-02-14T02:41:46.515Z,10.90
2023-02-14T02:44:47.451Z,9.70
2023-02-14T02:47:44.668Z,12.00
2023-02-14T02:50:59.329Z,9.90
2023-02-14T02:53:48.396Z,9.00
2023-02-14T02:56:49.750Z,10.90
2023-02-14T02:59:23.988Z,12.00
2023-02-14T03:02:15.339Z,10.90
2023-02-14T03:04:55.290Z,11.60
2023-02-14T03:07:39.768Z,13.80
2023-02-14T03:10:24.579Z,12.70
2023-02-14T03:13:09.429Z,10.10
2023-02-14T03:15:47.829Z,14.90
2023-02-14T03:19:13.238Z,10.40
2023-02-14T03:22:06.600Z,13.20
2023-02-14T03:24:56.219Z,8.80
2023-02-14T03:27:37.055Z,14.40
2023-02-14T03:30:21.652Z,12.20
2023-02-14T03:33:12.644Z,14.10
2023-02-14T03:35:51.323Z,11.70
2023-02-14T03:38:41.837Z,10.90
2023-02-14T03:41:18.153Z,13.40
2023-02-14T03:43:52.542Z,11.40
2023-02-14T03:46:22.090Z,12.50
2023-02-14T03:48:53.284Z,12.40
2023-02-14T03:51:24.003Z,13.60
2023-02-14T03:53:56.814Z,10.30
2023-02-14T03:56:44.053Z,12.50
2023-02-14T03:59:19.558Z,15.30
2023-02-14T04:01:49.818Z,12.90
2023-02-14T04:04:24.176Z,11.30
2023-02-14T04:06:51.054Z,12.30
2023-02-14T04:09:17.729Z,13.90
2023-02-14T04:11:46.421Z,16.10
2023-02-14T04:14:13.049Z,13.30
2023-02-14T04:16:58.923Z,13.40
2023-02-14T04:19:25.640Z,16.40
2023-02-14T04:21:53.394Z,15.30
2023-02-14T04:24:20.599Z,12.10
2023-02-14T04:27:12.300Z,15.20
2023-02-14T04:29:45.788Z,16.10
2023-02-14T04:32:19.438Z,15.00
2023-02-14T04:34:46.500Z,13.70
2023-02-14T04:37:16.522Z,10.00
2023-02-14T04:39:43.018Z,15.60
2023-02-14T04:42:09.866Z,16.00
2023-02-14T04:44:38.317Z,18.30
2023-02-14T04:47:05.960Z,13.70
2023-02-14T04:49:32.858Z,13.40
2023-02-14T04:51:59.618Z,15.00
2023-02-14T04:54:26.162Z,14.60
2023-02-14T04:56:53.137Z,16.30
2023-02-14T04:59:19.676Z,16.60
2023-02-14T05:01:46.347Z,18.50
2023-02-14T05:04:12.886Z,17.00
2023-02-14T05:06:39.516Z,16.60
2023-02-14T05:09:06.139Z,14.90
2023-02-14T05:11:32.939Z,14.70
2023-02-14T05:13:59.761Z,21.00
2023-02-14T05:16:26.471Z,16.80
2023-02-14T05:18:53.067Z,19.00
2023-02-14T05:21:19.839Z,20.40
2023-02-14T05:23:46.481Z,40.70
2023-02-14T05:26:12.940Z,45.50
2023-02-14T05:28:41.109Z,21.40
2023-02-14T05:31:09.422Z,39.60
2023-02-14T05:33:36.516Z,37.40
2023-02-14T05:36:03.990Z,24.10
2023-02-14T05:38:31.134Z,21.70
2023-02-14T05:40:57.808Z,24.20
2023-02-14T05:43:24.606Z,38.40
2023-02-14T05:45:51.137Z,25.20
2023-02-14T05:48:18.286Z,38.40
2023-02-14T05:50:45.557Z,28.70
2023-02-14T05:53:13.544Z,23.00
2023-02-14T05:55:40.422Z,23.70
2023-02-14T05:58:08.073Z,19.00
2023-02-14T06:00:34.748Z,14.10
2023-02-14T06:03:01.513Z,16.20
2023-02-14T06:05:28.088Z,20.90
2023-02-14T06:07:54.614Z,18.90
2023-02-14T06:10:24.536Z,13.90
2023-02-14T06:12:53.367Z,15.30
2023-02-14T06:15:20.828Z,14.70
2023-02-14T06:17:55.670Z,15.20
2023-02-14T06:20:24.320Z,14.10
2023-02-14T06:22:51.832Z,10.60
2023-02-14T06:25:18.851Z,17.40
2023-02-14T06:27:45.934Z,15.80
2023-02-14T06:30:14.254Z,13.50
2023-02-14T06:32:40.707Z,15.50
2023-02-14T06:35:08.126Z,15.20
2023-02-14T06:37:34.864Z,17.00
2023-02-14T06:40:01.827Z,22.30
2023-02-14T06:42:28.440Z,19.50
2023-02-14T06:44:54.911Z,21.60
2023-02-14T06:47:21.340Z,16.00
2023-02-14T06:49:47.825Z,15.50
2023-02-14T06:52:14.288Z,12.10
2023-02-14T06:54:40.970Z,16.30
2023-02-14T06:57:07.635Z,14.50
2023-02-14T06:59:34.105Z,14.20
2023-02-14T07:02:00.657Z,16.40
2023-02-14T07:04:27.200Z,15.70
2023-02-14T07:06:53.649Z,17.80
2023-02-14T07:09:20.183Z,15.70
2023-02-14T07:11:46.989Z,17.80
2023-02-14T07:14:13.953Z,15.60
2023-02-14T07:16:40.465Z,16.40
2023-02-14T07:19:06.962Z,12.20
2023-02-14T07:24:14.378Z,18.20
2023-02-14T07:26:41.889Z,16.10
2023-02-14T07:29:09.006Z,18.70
2023-02-14T07:31:35.712Z,14.40
2023-02-14T07:34:03.307Z,16.00
2023-02-14T07:36:29.831Z,17.00
2023-02-14T07:38:56.931Z,16.60
2023-02-14T07:41:24.030Z,16.70
2023-02-14T07:43:50.515Z,18.80
2023-02-14T07:46:17.753Z,16.80
2023-02-14T07:48:45.284Z,17.60
2023-02-14T07:51:11.939Z,23.80
2023-02-14T07:53:38.475Z,18.90
2023-02-14T07:56:05.207Z,32.70
2023-02-14T07:58:31.664Z,19.10
2023-02-14T08:00:59.653Z,18.30
2023-02-14T08:03:26.451Z,19.00
2023-02-14T08:05:57.062Z,20.20
2023-02-14T08:08:29.551Z,20.90
2023-02-14T08:10:57.040Z,11.00
2023-02-14T08:13:24.457Z,22.30
2023-02-14T08:16:06.542Z,23.00
2023-02-14T08:18:40.794Z,18.80
2023-02-14T08:21:10.688Z,20.10
2023-02-14T08:23:38.958Z,25.20
2023-02-14T08:26:06.051Z,20.90
2023-02-14T08:28:33.330Z,19.70
2023-02-14T08:31:00.516Z,13.00
2023-02-14T08:33:27.341Z,19.80
2023-02-14T08:35:54.391Z,18.20
2023-02-14T08:38:20.953Z,19.20
2023-02-14T08:40:47.749Z,19.50
2023-02-14T08:43:15.478Z,18.70
2023-02-14T08:45:41.923Z,21.20
2023-02-14T08:48:12.542Z,19.00
2023-02-14T08:50:40.765Z,13.70
2023-02-14T08:53:13.437Z,17.50
2023-02-14T08:55:40.621Z,19.60
2023-02-14T08:58:08.298Z,19.10
2023-02-14T09:00:36.240Z,18.00
2023-02-14T09:03:03.527Z,22.10
2023-02-14T09:05:30.089Z,21.10
2023-02-14T09:07:57.287Z,17.70
2023-02-14T09:10:25.265Z,19.60
2023-02-14T09:12:52.692Z,18.40
2023-02-14T09:15:20.208Z,15.80
2023-02-14T09:17:46.981Z,18.50
2023-02-14T09:20:15.580Z,17.30
2023-02-14T09:22:42.160Z,23.20
2023-02-14T09:25:08.780Z,17.00
2023-02-14T09:27:35.716Z,21.50
2023-02-14T09:30:02.919Z,19.50
2023-02-14T09:32:29.549Z,25.10
2023-02-14T09:34:56.204Z,18.10
2023-02-14T09:37:41.758Z,18.10
2023-02-14T09:40:12.782Z,18.60
2023-02-14T09:43:01.970Z,19.40
2023-02-14T09:45:32.186Z,18.10
2023-02-14T09:48:12.820Z,13.20
2023-02-14T09:50:54.679Z,18.20
2023-02-14T09:53:39.396Z,18.70
2023-02-14T09:56:27.360Z,16.00
2023-02-14T09:59:19.515Z,19.20
2023-02-14T10:02:01.232Z,16.20
2023-02-14T10:04:39.884Z,18.10
2023-02-14T10:07:27.508Z,17.70
2023-02-14T10:10:31.152Z,17.20
2023-02-14T10:13:19.089Z,15.90
2023-02-14T10:15:53.659Z,16.10
2023-02-14T10:18:38.432Z,22.40
2023-02-14T10:21:09.297Z,17.40
2023-02-14T10:23:49.084Z,23.50
2023-02-14T10:26:33.253Z,20.50
2023-02-14T10:28:59.736Z,20.70
2023-02-14T10:31:37.892Z,15.70
2023-02-14T10:34:22.542Z,14.50
2023-02-14T10:37:23.547Z,15.70
2023-02-14T10:40:18.536Z,16.50
2023-02-14T10:43:03.732Z,17.00
2023-02-14T10:46:18.997Z,18.00
2023-02-14T10:49:13.036Z,21.30
2023-02-14T10:52:19.424Z,15.70
2023-02-14T10:54:55.783Z,16.10
2023-02-14T10:57:32.143Z,19.30
2023-02-14T11:00:08.744Z,9.50
2023-02-14T11:02:51.086Z,19.30
2023-02-14T11:05:29.944Z,18.10
2023-02-14T11:07:59.370Z,17.20
2023-02-14T11:10:34.025Z,14.90
2023-02-14T11:13:00.683Z,16.20
2023-02-14T11:15:35.849Z,15.60
2023-02-14T11:18:23.980Z,17.90
2023-02-14T11:21:02.822Z,17.10
2023-02-14T11:23:36.413Z,14.90
2023-02-14T11:26:10.462Z,15.30
2023-02-14T11:28:58.110Z,17.70
2023-02-14T11:31:31.886Z,20.80
2023-02-14T11:34:02.926Z,18.80
2023-02-14T11:36:33.682Z,19.50
2023-02-14T11:39:21.946Z,16.80
2023-02-14T11:41:58.794Z,19.80
2023-02-14T11:44:29.497Z,19.50
2023-02-14T11:47:17.839Z,21.00
2023-02-14T11:49:57.326Z,21.90
2023-02-14T11:52:29.583Z,24.20
2023-02-14T11:54:58.420Z,16.00
2023-02-14T11:57:33.087Z,21.50
2023-02-14T12:00:04.980Z,21.90
2023-02-14T12:02:49.095Z,19.00
2023-02-14T12:05:31.600Z,20.00
2023-02-14T12:08:10.588Z,14.80
2023-02-14T12:10:42.412Z,20.10
2023-02-14T12:13:08.866Z,16.80
2023-02-14T12:15:44.348Z,16.90
2023-02-14T12:18:55.752Z,19.30
2023-02-14T12:21:44.308Z,30.40
2023-02-14T12:24:26.525Z,21.40
2023-02-14T12:27:37.785Z,17.80
2023-02-14T12:30:18.427Z,54.90
2023-02-14T12:32:56.483Z,31.90
2023-02-14T12:36:04.058Z,37.40
2023-02-14T12:38:55.911Z,27.30
2023-02-14T12:41:36.880Z,23.60
2023-02-14T12:44:36.062Z,33.60
2023-02-14T12:47:15.389Z,23.20
2023-02-14T12:50:24.009Z,22.80
2023-02-14T12:53:22.755Z,23.90
2023-02-14T12:56:32.144Z,19.30
2023-02-14T12:59:26.356Z,20.90
2023-02-14T13:02:19.898Z,20.30
2023-02-14T13:06:00.190Z,20.30
2023-02-14T13:09:02.672Z,24.40
2023-02-14T13:11:45.637Z,17.20
2023-02-14T13:14:44.809Z,16.60
2023-02-14T13:17:44.745Z,20.20
2023-02-14T13:20:17.192Z,21.80
2023-02-14T13:22:43.948Z,23.30
2023-02-14T13:25:34.027Z,23.00
2023-02-14T13:28:07.046Z,21.70
2023-02-14T13:30:42.080Z,18.30
2023-02-14T13:33:35.151Z,23.20
2023-02-14T13:36:10.293Z,23.70
2023-02-14T13:38:51.813Z,22.30
2023-02-14T13:41:22.304Z,27.20
2023-02-14T13:44:02.591Z,20.60
2023-02-14T13:46:32.188Z,14.50
2023-02-14T13:49:09.440Z,19.00
2023-02-14T13:51:51.639Z,15.30
2023-02-14T13:54:42.908Z,58.30
2023-02-14T13:57:33.952Z,39.40
2023-02-14T14:00:21.519Z,23.00
2023-02-14T14:02:52.912Z,32.80
2023-02-14T14:05:35.448Z,21.40
2023-02-14T14:08:23.957Z,26.00
2023-02-14T14:10:59.425Z,19.60
2023-02-14T14:13:41.299Z,18.80
2023-02-14T14:16:36.440Z,15.70
2023-02-14T14:19:24.977Z,20.80
2023-02-14T14:22:22.229Z,22.60
2023-02-14T14:25:11.322Z,23.00
2023-02-14T14:27:45.956Z,20.20
2023-02-14T14:30:23.754Z,22.50
2023-02-14T14:32:51.678Z,21.20
2023-02-14T14:35:25.427Z,17.80
2023-02-14T14:38:01.208Z,16.70
2023-02-14T14:40:35.580Z,17.10
2023-02-14T14:43:12.955Z,16.50
2023-02-14T14:45:43.116Z,18.30
2023-02-14T14:48:17.016Z,19.30
2023-02-14T14:50:48.923Z,21.10
2023-02-14T14:53:25.324Z,17.30
2023-02-14T14:55:53.158Z,23.80
2023-02-14T14:58:38.036Z,22.60
2023-02-14T15:01:08.422Z,22.80
2023-02-14T15:03:35.132Z,22.40
2023-02-14T15:06:19.564Z,21.80
2023-02-14T15:08:48.669Z,19.70
2023-02-14T15:11:45.670Z,21.40
2023-02-14T15:14:22.667Z,19.90
2023-02-14T15:17:15.815Z,21.60
2023-02-14T15:19:48.021Z,18.50
2023-02-14T15:22:29.819Z,19.70
2023-02-14T15:24:58.701Z,19.20
2023-02-14T15:27:28.398Z,26.20
2023-02-14T15:30:02.528Z,52.50
2023-02-14T15:32:36.394Z,30.20
2023-02-14T15:35:06.848Z,72.80
2023-02-14T15:37:34.188Z,33.90
2023-02-14T15:40:02.049Z,35.50
2023-02-14T15:42:33.250Z,34.70
2023-02-14T15:45:27.949Z,39.60
2023-02-14T15:48:15.597Z,30.20
2023-02-14T15:50:49.374Z,26.20
2023-02-14T15:53:50.156Z,19.90
2023-02-14T15:56:26.191Z,23.70
2023-02-14T15:59:04.803Z,19.60
2023-02-14T16:01:34.190Z,25.30
2023-02-14T16:04:05.838Z,21.30
2023-02-14T16:06:48.054Z,25.00
2023-02-14T16:09:28.453Z,20.40
2023-02-14T16:11:55.524Z,22.90
2023-02-14T16:14:35.269Z,19.30
2023-02-14T16:17:12.949Z,21.40
2023-02-14T16:19:45.711Z,24.70
2023-02-14T16:22:26.215Z,26.10
2023-02-14T16:24:52.591Z,21.20
2023-02-14T16:27:19.139Z,20.50
2023-02-14T16:29:45.583Z,20.10
2023-02-14T16:32:19.990Z,17.20
2023-02-14T16:34:47.616Z,22.80
2023-02-14T16:37:30.081Z,20.60
2023-02-14T16:39:57.729Z,20.50
2023-02-14T16:42:24.964Z,20.00
2023-02-14T16:44:51.585Z,23.50
2023-02-14T16:47:20.820Z,25.60
2023-02-14T16:49:47.765Z,22.60
2023-02-14T16:52:25.399Z,18.80
2023-02-14T16:54:54.979Z,19.00
2023-02-14T16:57:29.498Z,23.90
2023-02-14T16:59:56.929Z,42.00
2023-02-14T17:02:28.084Z,42.20
2023-02-14T17:04:54.775Z,31.10
2023-02-14T17:07:21.553Z,25.50
2023-02-14T17:09:54.796Z,25.00
2023-02-14T17:12:31.200Z,21.30
2023-02-14T17:15:06.047Z,20.20
2023-02-14T17:17:36.089Z,26.80
2023-02-14T17:20:06.250Z,25.50
2023-02-14T17:22:34.145Z,33.00
2023-02-14T17:25:00.790Z,42.90
2023-02-14T17:27:27.263Z,38.30
2023-02-14T17:29:54.008Z,26.50
2023-02-14T17:32:20.610Z,29.70
2023-02-14T17:34:50.367Z,29.20
2023-02-14T17:37:18.868Z,23.10
2023-02-14T17:39:45.660Z,40.20
2023-02-14T17:42:12.261Z,26.10
2023-02-14T17:44:39.354Z,27.90
2023-02-14T17:47:06.467Z,24.90
2023-02-14T17:49:33.000Z,27.70
2023-02-14T17:51:59.495Z,28.20
2023-02-14T17:54:26.071Z,29.80
2023-02-14T17:56:52.544Z,28.90
2023-02-14T17:59:19.040Z,23.60
2023-02-14T18:01:45.467Z,24.60
2023-02-14T18:04:12.254Z,25.20
2023-02-14T18:06:40.109Z,23.70
2023-02-14T18:09:06.942Z,27.80
2023-02-14T18:11:33.797Z,27.70
2023-02-14T18:14:01.618Z,32.50
2023-02-14T18:16:28.221Z,27.60
2023-02-14T18:18:54.947Z,29.70
2023-02-14T18:21:23.254Z,33.10
2023-02-14T18:23:49.972Z,30.00
2023-02-14T18:26:18.472Z,31.90
2023-02-14T18:28:45.352Z,39.00
2023-02-14T18:31:18.145Z,33.00
2023-02-14T18:33:46.548Z,27.00
2023-02-14T18:36:17.702Z,26.20
2023-02-14T18:38:47.050Z,24.70
2023-02-14T18:41:18.078Z,25.40
2023-02-14T18:43:45.053Z,26.40
2023-02-14T18:46:20.413Z,28.10
2023-02-14T18:48:47.184Z,26.00
2023-02-14T18:51:21.299Z,32.90
2023-02-14T18:53:52.091Z,34.60
2023-02-14T18:56:25.757Z,37.20
2023-02-14T18:58:57.452Z,34.10
2023-02-14T19:01:29.543Z,29.90
2023-02-14T19:03:59.492Z,28.30
2023-02-14T19:06:29.407Z,32.20
2023-02-14T19:08:57.001Z,33.10
2023-02-14T19:11:28.165Z,30.10
2023-02-14T19:13:58.359Z,45.60
2023-02-14T19:16:33.355Z,63.30
2023-02-14T19:19:02.323Z,59.50
2023-02-14T19:21:33.673Z,42.00
2023-02-14T19:24:02.539Z,43.00
2023-02-14T19:26:37.101Z,37.20
2023-02-14T19:29:08.488Z,33.70
2023-02-14T19:31:37.966Z,27.70
2023-02-14T19:34:07.565Z,27.40
2023-02-14T19:36:39.123Z,32.40
2023-02-14T19:39:05.802Z,27.40
2023-02-14T19:41:36.914Z,29.60
2023-02-14T19:44:06.707Z,25.80
2023-02-14T19:46:34.056Z,38.70
2023-02-14T19:49:02.560Z,31.80
2023-02-14T19:51:36.035Z,27.10
2023-02-14T19:54:07.083Z,26.60
2023-02-14T19:56:38.627Z,27.00
2023-02-14T19:59:14.327Z,23.70
2023-02-14T20:01:46.292Z,33.90
2023-02-14T20:04:20.148Z,28.00
2023-02-14T20:06:49.326Z,31.30
2023-02-14T20:09:16.890Z,33.60
2023-02-14T20:11:50.295Z,28.80
2023-02-14T20:14:50.363Z,28.90
2023-02-14T20:17:18.117Z,52.30
2023-02-14T20:19:45.000Z,43.10
2023-02-14T20:22:11.548Z,40.30
2023-02-14T20:24:38.192Z,32.90
2023-02-14T20:27:04.693Z,29.00
2023-02-14T20:29:31.920Z,35.40
2023-02-14T20:32:01.452Z,30.90
2023-02-14T20:34:29.541Z,60.50
2023-02-14T20:36:56.406Z,77.10
2023-02-14T20:39:32.393Z,99.40
2023-02-14T20:42:00.408Z,83.30
2023-02-14T20:44:27.563Z,63.70
2023-02-14T20:46:56.126Z,53.60
2023-02-14T20:49:25.245Z,43.20
2023-02-14T20:51:52.697Z,52.50
2023-02-14T20:54:22.882Z,54.20
2023-02-14T20:56:50.782Z,49.80
2023-02-14T20:59:26.876Z,51.40
2023-02-14T21:01:56.022Z,44.00
2023-02-14T21:04:23.713Z,47.40
2023-02-14T21:06:50.429Z,51.80
2023-02-14T21:09:18.698Z,61.50
2023-02-14T21:11:45.323Z,84.20
2023-02-14T21:14:12.106Z,54.20
2023-02-14T21:16:38.781Z,47.50
2023-02-14T21:19:05.883Z,41.80
2023-02-14T21:21:36.534Z,38.10
2023-02-14T21:24:14.583Z,37.20
2023-02-14T21:26:42.728Z,35.10
2023-02-14T21:29:10.363Z,38.70
2023-02-14T21:31:38.613Z,29.00
2023-02-14T21:34:05.635Z,29.20
2023-02-14T21:36:36.968Z,36.10
2023-02-14T21:39:05.878Z,36.00
2023-02-14T21:41:34.025Z,34.60
2023-02-14T21:44:02.055Z,33.90
2023-02-14T21:46:33.571Z,34.30
2023-02-14T21:49:21.288Z,31.30
2023-02-14T21:51:48.651Z,34.70
2023-02-14T21:54:15.985Z,37.10
2023-02-14T21:56:43.107Z,30.10
2023-02-14T21:59:10.446Z,38.30
2023-02-14T22:01:39.774Z,41.20
2023-02-14T22:04:09.779Z,51.20
2023-02-14T22:06:39.073Z,58.20
2023-02-14T22:09:06.929Z,60.10
2023-02-14T22:11:34.215Z,54.90
2023-02-14T22:14:00.834Z,55.70
2023-02-14T22:16:27.453Z,70.40
2023-02-14T22:18:54.174Z,96.40
2023-02-14T22:21:24.025Z,68.60
2023-02-14T22:23:51.099Z,84.40
2023-02-14T22:26:25.937Z,55.30
2023-02-14T22:28:56.989Z,47.50
2023-02-14T22:31:25.603Z,59.80
2023-02-14T22:33:52.671Z,131.20
2023-02-14T22:36:19.995Z,128.90
2023-02-14T22:38:46.595Z,100.00
2023-02-14T22:41:19.413Z,98.40
2023-02-14T22:43:46.440Z,92.60
2023-02-14T22:46:19.868Z,78.50
2023-02-14T22:48:48.545Z,84.30
2023-02-14T22:51:26.517Z,85.20
2023-02-14T22:54:02.863Z,79.70
2023-02-14T22:56:38.687Z,71.30
2023-02-14T22:59:16.942Z,87.10
2023-02-14T23:01:43.775Z,80.60
2023-02-14T23:04:10.627Z,82.60
2023-02-14T23:06:38.041Z,85.60
2023-02-14T23:09:07.896Z,71.90
2023-02-14T23:11:37.654Z,63.40
2023-02-14T23:14:24.499Z,68.50
2023-02-14T23:17:10.300Z,78.30
2023-02-14T23:19:56.213Z,81.10
2023-02-14T23:22:25.863Z,82.00
2023-02-14T23:24:57.151Z,62.90
2023-02-14T23:27:44.089Z,63.40
2023-02-14T23:30:16.231Z,61.70
2023-02-14T23:32:43.447Z,60.60
2023-02-14T23:35:10.624Z,65.70
2023-02-14T23:37:37.283Z,67.20
2023-02-14T23:40:04.602Z,70.20
2023-02-14T23:42:31.108Z,67.30
2023-02-14T23:45:17.574Z,75.20
2023-02-14T23:47:43.930Z,82.80
2023-02-14T23:50:10.753Z,81.40
2023-02-14T23:52:41.520Z,72.70
2023-02-14T23:55:09.096Z,79.90
2023-02-14T23:57:35.722Z,80.90
